Latest Weather Observations for Beaudesert AWS

IDQ60901

Issued at 8:31 am EST Thursday 5 March 2015 (issued every 10 minutes, with the page automatically refreshed every 10 minutes)

About weather observations | Map of Brisbane area stations | Latest observations for Brisbane area | Other Formats
Station Details ID: 040983 Name: BEAUDESERT DRUMLEY STREET Lat: -27.97 Lon: 152.99 Height: 47.81 m
Data from the previous 72 hours. | See also: Recent months at Beaudesert AWS
Date/Time
EST
Tmp

°C
App
Tmp
°C
Dew
Point
°C
Rel
Hum
%
Delta-T

°C
Wind Press
QNH
hPa
Press
MSL
hPa
Rain
since
9 am
mm
Dir
 
Spd
km/h
Gust
km/h
Spd
kts
Gust
kts
05/08:30am 25.2 28.1 19.8 72 3.5 WNW 4 9 2 5 1009.0 1008.8 0.0
05/08:00am 24.4 27.4 19.2 73 3.3 SSE 2 4 1 2 1009.2 1009.0 0.0
05/07:30am 23.6 27.4 20.1 81 2.3 CALM 0 0 0 0 1009.3 1009.1 0.0
05/07:00am 21.4 24.3 19.0 86 1.5 SSW 2 4 1 2 1009.4 1009.2 0.0
05/06:30am 20.4 23.5 18.7 90 1.1 CALM 0 0 0 0 1009.0 1008.8 0.0
05/06:00am 19.9 23.0 18.6 92 0.8 CALM 0 0 0 0 1008.8 1008.6 0.0
05/05:30am 19.3 21.9 17.4 89 1.2 CALM 0 0 0 0 1008.6 1008.4 0.0
05/05:00am 19.7 22.5 18.0 90 1.1 CALM 0 0 0 0 1008.5 1008.3 0.0
05/04:30am 19.7 22.5 18.0 90 1.1 CALM 0 0 0 0 1008.4 1008.2 0.0
05/04:00am 19.7 22.5 18.0 90 1.1 CALM 0 0 0 0 1008.5 1008.3 0.0
05/03:30am 19.9 22.9 18.4 91 0.9 CALM 0 0 0 0 1008.7 1008.5 0.0
05/03:00am 20.0 22.9 18.1 89 1.2 CALM 0 0 0 0 1008.9 1008.7 0.0
05/02:30am 20.2 23.1 18.1 88 1.3 CALM 0 0 0 0 1009.1 1008.9 0.0
05/02:00am 20.4 23.3 18.3 88 1.3 CALM 0 0 0 0 1009.6 1009.4 0.0
05/01:30am 20.7 23.8 18.6 88 1.3 CALM 0 0 0 0 1010.0 1009.8 0.0
05/01:00am 20.6 23.6 18.4 87 1.4 CALM 0 0 0 0 1010.3 1010.1 0.0
05/12:30am 21.0 24.2 18.8 87 1.4 CALM 0 0 0 0 1010.8 1010.6 0.0
05/12:00am 21.8 25.1 19.2 85 1.7 CALM 0 0 0 0 1010.9 1010.7 0.0
 
Date/Time
EST
Tmp

°C
App
Tmp
°C
Dew
Point
°C
Rel
Hum
%
Delta-T

°C
Wind Press
QNH
hPa
Press
MSL
hPa
Rain
since
9 am
mm
Dir
 
Spd
km/h
Gust
km/h
Spd
kts
Gust
kts
04/11:30pm 22.5 25.8 19.1 81 2.2 CALM 0 2 0 1 1011.3 1011.1 0.0
04/11:00pm 22.8 25.8 19.2 80 2.3 E 2 4 1 2 1011.7 1011.5 0.0
04/10:30pm 22.9 25.8 19.1 79 2.4 E 2 2 1 1 1011.9 1011.7 0.0
04/10:00pm 23.1 25.9 18.8 77 2.7 ENE 2 4 1 2 1012.0 1011.8 0.0
04/09:30pm 23.4 26.0 18.3 73 3.2 E 2 2 1 1 1012.3 1012.1 0.0
04/09:00pm 24.4 26.7 18.6 70 3.7 NE 4 6 2 3 1012.4 1012.2 0.0
04/08:30pm 24.7 27.3 18.4 68 4.0 NNE 2 6 1 3 1012.3 1012.1 0.0
04/08:00pm 25.2 27.3 18.2 65 4.4 NE 4 6 2 3 1012.0 1011.8 0.0
04/07:30pm 25.5 27.6 18.2 64 4.6 NE 4 6 2 3 1011.7 1011.5 0.0
04/07:00pm 26.0 28.1 18.2 62 4.9 NE 4 9 2 5 1011.3 1011.1 0.0
04/06:30pm 26.9 28.9 17.9 57 5.7 NE 4 7 2 4 1010.9 1010.7 0.0
04/06:00pm 28.2 29.6 17.7 53 6.7 NE 7 13 4 7 1010.6 1010.4 0.0
04/05:30pm 29.3 29.8 17.5 49 7.5 NE 11 13 6 7 1010.4 1010.2 0.0
04/05:00pm 30.1 30.6 17.5 46 8.0 NNE 11 19 6 10 1010.3 1010.1 0.0
04/04:30pm 31.1 32.2 17.0 42 8.9 N 7 13 4 7 1010.1 1009.9 0.0
04/04:00pm 31.2 32.1 16.0 40 9.5 NNE 6 9 3 5 1010.3 1010.1 0.0
04/03:30pm 31.5 32.9 16.3 40 9.5 N 4 9 2 5 1010.4 1010.2 0.0
04/03:00pm 30.8 31.8 16.8 43 8.8 NNW 7 13 4 7 1010.6 1010.4 0.0
04/02:30pm 30.8 32.4 18.2 47 8.1 WNW 7 11 4 6 1011.0 1010.8 0.0
04/02:00pm 30.4 31.8 17.8 46 8.1 NW 7 13 4 7 1011.3 1011.1 0.0
04/01:30pm 29.9 31.3 17.4 47 7.9 WNW 6 11 3 6 1011.9 1011.7 0.0
04/01:00pm 29.7 31.5 18.2 50 7.4 N 6 13 3 7 1012.5 1012.3 0.0
04/12:30pm 29.5 31.3 18.3 51 7.2 W 6 13 3 7 1012.8 1012.6 0.0
04/12:00pm 28.8 30.6 18.3 53 6.7 NW 6 13 3 7 1013.3 1013.1 0.0
04/11:30am 28.1 29.3 18.2 55 6.3 NW 9 13 5 7 1013.8 1013.6 0.0
04/11:00am 27.4 29.0 17.8 55 6.1 WNW 6 11 3 6 1014.2 1014.0 0.0
04/10:30am 27.3 29.3 17.8 56 6.0 NNW 4 7 2 4 1014.4 1014.2 0.0
04/10:00am 26.6 28.6 17.9 59 5.5 NW 4 9 2 5 1014.9 1014.7 0.0
04/09:30am 26.0 28.1 17.1 58 5.5 WNW 2 6 1 3 1014.8 1014.6 0.0
04/09:00am 26.0 28.7 18.7 64 4.7 WSW 2 6 1 3 1015.0 1014.8 0.0
04/08:30am 24.6 26.6 17.8 66 4.3 SW 4 6 2 3 1015.0 1014.8 0.0
04/08:00am 23.5 25.7 18.4 73 3.2 S 4 6 2 3 1015.0 1014.8 0.0
04/07:30am 22.2 24.8 19.2 83 1.9 SSW 4 6 2 3 1014.7 1014.5 0.0
04/07:00am 20.7 23.1 18.8 89 1.2 SW 4 4 2 2 1014.5 1014.3 0.0
04/06:30am 19.9 22.9 18.4 91 0.9 CALM 0 0 0 0 1014.1 1013.9 0.0
04/06:00am 19.7 22.6 18.2 91 0.9 CALM 0 0 0 0 1013.9 1013.7 0.0
04/05:30am 19.6 22.5 18.1 91 0.9 CALM 0 0 0 0 1013.7 1013.5 0.0
04/05:00am 19.8 22.8 18.5 92 0.8 CALM 0 0 0 0 1013.5 1013.3 0.0
04/04:30am 19.7 22.7 18.4 92 0.8 CALM 0 0 0 0 1013.3 1013.1 0.0
04/04:00am 19.7 22.6 18.2 91 0.9 CALM 0 0 0 0 1013.1 1012.9 0.0
04/03:30am 19.4 22.3 18.1 92 0.8 CALM 0 0 0 0 1013.2 1013.0 0.0
04/03:00am 19.2 21.8 17.5 90 1.0 CALM 0 0 0 0 1013.3 1013.1 0.0
04/02:30am 20.0 23.0 18.5 91 0.9 CALM 0 0 0 0 1013.6 1013.4 0.0
04/02:00am 20.7 23.9 18.8 89 1.2 CALM 0 0 0 0 1014.0 1013.8 0.0
04/01:30am 21.1 24.1 18.5 85 1.6 CALM 0 0 0 0 1014.4 1014.2 0.0
04/01:00am 21.0 24.2 18.8 87 1.4 CALM 0 0 0 0 1014.9 1014.7 0.0
04/12:30am 20.7 23.8 18.6 88 1.3 CALM 0 0 0 0 1015.3 1015.1 0.0
04/12:00am 20.6 23.6 18.4 87 1.4 CALM 0 0 0 0 1015.7 1015.5 0.0
 
Date/Time
EST
Tmp

°C
App
Tmp
°C
Dew
Point
°C
Rel
Hum
%
Delta-T

°C
Wind Press
QNH
hPa
Press
MSL
hPa
Rain
since
9 am
mm
Dir
 
Spd
km/h
Gust
km/h
Spd
kts
Gust
kts
03/11:30pm 20.2 23.1 18.1 88 1.3 CALM 0 0 0 0 1015.8 1015.6 0.0
03/11:00pm 19.8 22.4 17.6 87 1.3 CALM 0 0 0 0 1016.0 1015.8 0.0
03/10:30pm 20.2 23.1 18.1 88 1.3 CALM 0 4 0 2 1015.7 1015.5 0.0
03/10:00pm 20.6 23.6 18.5 88 1.3 CALM 0 0 0 0 1015.8 1015.6 0.0
03/09:30pm 20.8 23.7 18.2 85 1.6 CALM 0 0 0 0 1015.8 1015.6 0.0
03/09:00pm 21.7 24.2 18.1 80 2.2 NE 2 4 1 2 1015.5 1015.3 0.0
03/08:30pm 22.4 24.7 17.8 75 2.9 N 2 4 1 2 1015.3 1015.1 0.0
03/08:00pm 23.5 25.9 17.9 71 3.5 NNW 2 4 1 2 1015.0 1014.8 0.0
03/07:30pm 24.2 26.2 17.9 68 4.0 N 4 6 2 3 1014.5 1014.3 0.0
03/07:00pm 24.9 26.6 18.1 66 4.3 NNE 6 9 3 5 1014.2 1014.0 0.0
03/06:30pm 25.1 27.3 18.3 66 4.3 NE 4 7 2 4 1013.8 1013.6 0.0
03/06:00pm 26.1 27.3 18.2 61 5.0 ENE 9 17 5 9 1013.5 1013.3 0.0
03/05:30pm 27.4 28.3 18.4 58 5.7 ENE 11 19 6 10 1013.0 1012.8 0.0
03/05:00pm 28.5 29.7 18.3 54 6.5 ENE 9 17 5 9 1012.8 1012.6 0.0
03/04:30pm 28.9 29.8 18.4 53 6.7 ENE 11 17 6 9 1012.5 1012.3 0.0
03/04:00pm 29.8 30.7 18.3 50 7.4 ENE 11 17 6 9 1012.4 1012.2 0.0
03/03:30pm 30.3 31.8 16.7 44 8.6 NE 4 7 2 4 1012.4 1012.2 0.0
03/03:00pm 30.9 32.9 16.9 43 8.9 WNW 2 7 1 4 1012.4 1012.2 0.0
03/02:30pm 30.0 31.4 16.4 44 8.5 NNE 4 7 2 4 1012.7 1012.5 0.0
03/02:00pm 30.7 32.5 18.8 49 7.7 SSE 7 11 4 6 1013.0 1012.8 0.0
03/01:30pm 30.0 31.4 17.8 48 7.8 SSW 7 13 4 7 1013.5 1013.3 0.0
03/01:00pm 29.6 30.6 17.8 49 7.5 SSW 9 13 5 7 1014.1 1013.9 0.0
03/12:30pm 28.8 29.7 16.0 45 7.9 SW 6 15 3 8 1014.5 1014.3 0.0
03/12:00pm 28.3 29.1 15.9 47 7.6 SSW 6 15 3 8 1014.8 1014.6 0.0
03/11:30am 28.3 29.4 16.6 49 7.3 WSW 6 13 3 7 1015.2 1015.0 0.0
03/11:00am 27.1 28.4 17.0 54 6.3 WSW 6 9 3 5 1015.5 1015.3 0.0
03/10:30am 26.7 28.3 16.9 55 6.1 S 4 7 2 4 1015.9 1015.7 0.0
03/10:00am 25.9 27.2 17.5 59 5.3 SW 7 11 4 6 1016.3 1016.1 0.0
03/09:30am 26.1 28.2 18.0 61 5.1 SW 4 7 2 4 1016.4 1016.2 0.0
03/09:00am 25.5 27.1 17.9 63 4.8 S 6 9 3 5 1016.3 1016.1 0.0
03/08:30am 24.5 26.2 18.0 67 4.1 WSW 6 9 3 5 1016.2 1016.0 0.0
03/08:00am 23.2 25.1 18.5 75 3.0 SW 6 9 3 5 1016.1 1015.9 0.0
03/07:30am 22.3 25.5 19.7 85 1.7 SSW 2 4 1 2 1015.8 1015.6 0.0
03/07:00am 21.0 23.6 18.4 85 1.6 S 2 4 1 2 1015.5 1015.3 0.0
03/06:30am 19.3 22.1 18.0 92 0.8 CALM 0 0 0 0 1015.4 1015.2 0.0
03/06:00am 17.9 20.1 16.6 92 0.8 CALM 0 0 0 0 1015.2 1015.0 0.0
03/05:30am 18.1 20.3 16.4 90 1.0 CALM 0 2 0 1 1014.9 1014.7 0.0
03/05:00am 19.1 21.1 17.8 92 0.8 ENE 4 4 2 2 1014.6 1014.4 0.0
03/04:30am 19.1 21.4 17.6 91 0.9 E 2 6 1 3 1014.4 1014.2 0.0
03/04:00am 18.8 21.4 17.5 92 0.8 CALM 0 0 0 0 1014.4 1014.2 0.0
03/03:30am 18.2 20.4 16.5 90 1.0 CALM 0 0 0 0 1014.2 1014.0 0.0
03/03:00am 18.5 20.8 16.8 90 1.0 CALM 0 0 0 0 1014.2 1014.0 0.0
03/02:30am 18.8 21.4 17.5 92 0.8 CALM 0 0 0 0 1014.2 1014.0 0.0
03/02:00am 18.8 21.2 17.1 90 1.0 CALM 0 0 0 0 1014.4 1014.2 0.0
03/01:30am 18.8 21.2 16.9 89 1.1 CALM 0 0 0 0 1014.8 1014.6 0.0
03/01:00am 20.0 22.8 18.0 88 1.2 CALM 0 2 0 1 1015.0 1014.8 0.0
03/12:30am 19.4 21.6 17.4 88 1.2 NE 2 4 1 2 1015.4 1015.2 0.0
03/12:00am 20.1 22.6 18.1 88 1.2 NE 2 4 1 2 1015.5 1015.3 0.0
 
Date/Time
EST
Tmp

°C
App
Tmp
°C
Dew
Point
°C
Rel
Hum
%
Delta-T

°C
Wind Press
QNH
hPa
Press
MSL
hPa
Rain
since
9 am
mm
Dir
 
Spd
km/h
Gust
km/h
Spd
kts
Gust
kts
02/11:30pm 20.3 22.9 18.4 89 1.2 ENE 2 6 1 3 1015.9 1015.7 0.0
02/11:00pm 20.0 22.4 18.0 88 1.2 NE 2 4 1 2 1015.9 1015.7 0.0
02/10:30pm 20.4 23.3 18.2 87 1.4 CALM 0 0 0 0 1015.8 1015.6 0.0
02/10:00pm 21.8 25.0 18.8 83 1.9 CALM 0 0 0 0 1015.8 1015.6 0.0
02/09:30pm 21.8 24.7 19.0 84 1.8 SE 2 4 1 2 1015.9 1015.7 0.0
02/09:00pm 21.7 24.9 18.9 84 1.8 CALM 0 0 0 0 1015.9 1015.7 0.0
02/08:30pm 22.1 25.0 19.1 83 1.9 WNW 2 6 1 3 1015.5 1015.3 0.0
02/08:00pm 22.9 24.9 18.7 77 2.7 SE 6 9 3 5 1015.1 1014.9 0.0
02/07:30pm 23.1 23.6 18.4 75 3.0 SE 13 22 7 12 1014.9 1014.7 0.0
02/07:00pm 25.1 26.3 18.3 66 4.3 SSE 9 17 5 9 1014.1 1013.9 0.0
02/06:30pm 25.8 26.5 18.0 62 4.9 SE 11 17 6 9 1013.5 1013.3 0.0
02/06:00pm 26.7 27.4 18.0 59 5.5 SE 11 19 6 10 1013.1 1012.9 0.0
02/05:30pm 27.1 27.3 17.6 56 6.0 SE 13 22 7 12 1012.6 1012.4 0.0
02/05:00pm 28.4 29.5 17.9 53 6.7 SE 9 19 5 10 1012.2 1012.0 0.0
02/04:30pm 28.1 27.6 17.0 51 7.0 ESE 15 22 8 12 1011.9 1011.7 0.0
02/04:00pm 28.5 28.3 16.7 48 7.4 ESE 13 26 7 14 1011.6 1011.4 0.0
02/03:30pm 29.3 29.4 17.5 49 7.5 ESE 13 19 7 10 1011.6 1011.4 0.0
02/03:00pm 29.1 30.4 18.5 52 6.8 SE 9 15 5 8 1011.6 1011.4 0.0
02/02:30pm 28.9 29.3 18.1 52 6.9 S 13 20 7 11 1011.9 1011.7 0.0
02/02:00pm 29.9 29.6 18.3 49 7.5 S 17 26 9 14 1012.0 1011.8 0.0
02/01:30pm 30.0 31.0 19.4 53 6.9 S 13 24 7 13 1012.1 1011.9 0.0
02/01:00pm 29.9 30.6 19.6 54 6.7 S 15 24 8 13 1012.4 1012.2 0.0
02/12:30pm 29.4 30.0 20.3 58 6.0 SSW 17 33 9 18 1012.7 1012.5 0.0
02/12:00pm 28.7 28.9 19.3 56 6.1 SSW 17 26 9 14 1013.0 1012.8 0.0
02/11:30am 29.4 30.6 19.1 54 6.7 S 11 20 6 11 1013.3 1013.1 0.0
02/11:00am 28.3 27.8 18.7 56 6.2 SSW 19 30 10 16 1013.6 1013.4 0.0
02/10:30am 27.5 26.9 18.5 58 5.8 SSW 19 30 10 16 1013.9 1013.7 0.0
02/10:00am 27.3 28.3 19.4 62 5.1 SSW 13 20 7 11 1013.7 1013.5 0.0
02/09:30am 26.8 26.9 20.4 68 4.2 SSW 20 28 11 15 1013.7 1013.5 0.0
02/09:00am 26.2 26.9 20.5 71 3.7 SSW 17 24 9 13 1013.6 1013.4 0.0

Latest Capital City Observations: Canberra | Sydney | Melbourne | Brisbane | Adelaide | Perth | Hobart | Darwin

Other Formats:

Comma delimited format used in spreadsheet applications
http://www.bom.gov.au/fwo/IDQ60901/IDQ60901.95575.axf

JavaScript Object Notation format (JSON) in row-major order
http://www.bom.gov.au/fwo/IDQ60901/IDQ60901.95575.json